• Join FlightAware (Why Join?)
  • Login
  • US Flag 
07:40AM EDT


 

Airport Tracker/Info


-or-


 

Live Flight TrackerFlight Track Log ✈ UAL6025 ✈ 05-Sep-2013 ✈ KIAD - KTUL

Flight Track Log - Related Links

Times and Time Zones

All times are in EDT time to prevent confusion due to time zone crossing. See the UAL6025 flight status page for this flight to view local times or setup timezone preferences in your user account.

Time Position Orientation Groundspeed Altitude Reporting Facility
EDT Latitude Longitude Course Direction KTS MPH feet Rate Location/Type
07:10PM 38.9333 -77.5167 237° Southwest 178 205 1,700  Level Potomac TRACON
07:11PM 38.9000 -77.5833 237° Southwest 242 278 3,600 2,700 Climbing Potomac TRACON
07:12PM 38.8500 -77.6500 226° Southwest 268 308 7,100 2,640 Climbing Potomac TRACON
07:13PM 38.7667 -77.6667 189° South 289 333 9,200 1,980 Climbing Potomac TRACON
07:14PM 38.6833 -77.6833 189° South 316 364 11,100 1,380 Climbing Potomac TRACON
07:15PM 38.5778 -77.7161 194° South 351 404 12,400 1,260 Climbing Washington Center
07:16PM 38.4872 -77.7667 204° Southwest 363 418 14,000 1,560 Climbing Washington Center
07:17PM 38.4311 -77.8736 236° Southwest 346 398 15,600 1,380 Climbing Washington Center
07:18PM 38.3769 -77.9781 237° Southwest 351 404 16,800 1,080 Climbing Washington Center
07:19PM 38.3161 -78.0897 235° Southwest 368 423 17,800 960 Climbing Washington Center
07:20PM 38.2553 -78.2042 236° Southwest 382 440 18,800 1,260 Climbing Washington Center
07:21PM 38.1964 -78.3211 237° Southwest 394 453 20,400 1,620 Climbing Washington Center
07:22PM 38.1375 -78.4297 235° Southwest 394 453 22,100 1,620 Climbing Washington Center
07:23PM 38.0972 -78.5444 246° West 378 435 23,600 1,260 Climbing Washington Center
07:24PM 38.0567 -78.6642 247° West 368 423 24,700 960 Climbing Washington Center
07:25PM 38.0139 -78.7861 246° West 368 423 25,600 1,200 Climbing Washington Center
07:26PM 37.9686 -78.9186 247° West 375 432 27,200 1,440 Climbing Washington Center
07:27PM 37.9278 -79.0406 247° West 375 432 28,500 900 Climbing Washington Center
07:28PM 37.8806 -79.1567 243° Southwest 375 432 29,000 240 Climbing Washington Center
07:29PM 37.8250 -79.2697 238° Southwest 394 453 29,000  Level Washington Center
07:30PM 37.7603 -79.3981 237° Southwest 419 482 29,100 780 Climbing Washington Center
07:31PM 37.6892 -79.5361 237° Southwest 437 503 30,600 1,440 Climbing Washington Center
07:32PM 37.6333 -79.6486 238° Southwest 429 494 32,000 1,200 Climbing Washington Center
07:33PM 37.5642 -79.7811 237° Southwest 419 482 33,000 480 Climbing Washington Center
07:34PM 37.5078 -79.9011 239° Southwest 437 503 33,000 360 Level Washington Center
07:35PM 37.4425 -80.0283 237° Southwest 444 511 33,800 1,140 Climbing Washington Center
07:36PM 37.3772 -80.1525 237° Southwest 433 498 35,300 600 Climbing Washington Center
07:38PM 37.2214 -80.4500 237° Southwest 422 486 36,000 180 Climbing Atlanta Center
07:39PM 37.1564 -80.5781 238° Southwest 433 498 36,000  Level Atlanta Center
07:40PM 37.0911 -80.7056 237° Southwest 438 504 36,000  Level Atlanta Center
07:41PM 37.0444 -80.8300 245° Southwest 438 504 36,000  Level Atlanta Center
07:42PM 36.9936 -80.9697 246° West 443 510 36,000  Level Atlanta Center
07:43PM 36.9431 -81.1092 246° West 443 510 36,000  Level Atlanta Center
07:44PM 36.8881 -81.2619 246° West 443 510 36,000  Level Atlanta Center
07:45PM 36.8411 -81.3983 247° West 443 510 36,000  Level Atlanta Center
07:46PM 36.7897 -81.5375 245° Southwest 443 510 36,000  Level Atlanta Center
07:47PM 36.7483 -81.6581 247° West 433 498 36,000  Level Atlanta Center
07:48PM 36.6989 -81.7967 246° West 433 498 36,000  Level Atlanta Center
07:49PM 36.6492 -81.9272 245° Southwest 428 493 36,000  Level Atlanta Center
07:50PM 36.5992 -82.0606 245° Southwest 423 487 36,000  Level Atlanta Center
07:51PM 36.5511 -82.1936 246° West 423 487 36,000  Level Atlanta Center
07:52PM 36.5031 -82.3264 246° West 423 487 36,000  Level Atlanta Center
07:53PM 36.4528 -82.4592 245° Southwest 423 487 36,000  Level Atlanta Center
07:54PM 36.4106 -82.5942 249° West 423 487 36,000  Level Atlanta Center
07:55PM 36.4058 -82.7411 268° West 415 478 36,000  Level Atlanta Center
07:56PM 36.4075 -82.8986 271° West 420 483 36,000  Level Atlanta Center
07:57PM 36.4081 -83.0089 270° West 420 483 36,000  Level Indianapolis Center
07:58PM 36.4081 -83.1561 270° West 423 487 36,000  Level Indianapolis Center
07:59PM 36.4072 -83.3283 270° West 424 488 36,000  Level Indianapolis Center
08:00PM 36.4058 -83.4756 269° West 425 489 36,000  Level Indianapolis Center
08:01PM 36.4058 -83.6086 270° West 427 491 36,000  Level Indianapolis Center
08:02PM 36.4042 -83.7844 269° West 425 489 36,000  Level Indianapolis Center
08:03PM 36.4022 -83.9325 269° West 428 493 36,000  Level Indianapolis Center
08:04PM 36.4003 -84.0792 269° West 427 491 36,000  Level Indianapolis Center
08:05PM 36.3975 -84.2272 269° West 430 495 36,000  Level Indianapolis Center
08:06PM 36.3956 -84.3750 269° West 430 495 36,000  Level Indianapolis Center
08:07PM 36.3931 -84.5222 269° West 430 495 36,000  Level Indianapolis Center
08:08PM 36.3906 -84.6711 269° West 434 499 36,000  Level Indianapolis Center
08:09PM 36.3875 -84.8492 269° West 433 498 36,000  Level Indianapolis Center
08:11PM 36.3847 -84.9972 269° West 434 499 36,000  Level Indianapolis Center
08:12PM 36.3803 -85.1461 268° West 436 502 36,000  Level Indianapolis Center
08:13PM 36.3769 -85.2944 268° West 433 498 36,000  Level Indianapolis Center
08:14PM 36.3725 -85.4444 268° West 438 504 36,000  Level Indianapolis Center
08:15PM 36.3692 -85.5950 268° West 439 505 36,000  Level Indianapolis Center
08:16PM 36.3642 -85.7750 268° West 437 503 36,000  Level Indianapolis Center
08:17PM 36.3611 -85.9183 269° West 439 505 36,000  Level Indianapolis Center
08:18PM 36.3550 -86.0697 267° West 437 503 36,000  Level Indianapolis Center
08:19PM 36.3517 -86.2194 268° West 433 498 36,000  Level Indianapolis Center
08:20PM 36.3467 -86.3661 268° West 425 489 36,000  Level Indianapolis Center
08:21PM 36.3417 -86.5139 268° West 425 489 36,000  Level Indianapolis Center
08:22PM 36.3367 -86.6622 268° West 426 490 36,000  Level Indianapolis Center
08:23PM 36.3306 -86.8408 268° West 431 496 36,000  Level Indianapolis Center
08:24PM 36.3200 -87.0214 266° West 440 506 36,000  Level Memphis Center
08:25PM 36.3175 -87.1631 269° West 459 528 36,000  Level Memphis Center
08:26PM 36.3108 -87.3103 267° West 442 509 36,000  Level Memphis Center
08:27PM 36.3039 -87.4597 267° West 435 501 36,000  Level Memphis Center
08:28PM 36.2992 -87.6094 268° West 440 506 36,000  Level Memphis Center
08:29PM 36.2900 -87.7719 266° West 446 513 36,000  Level Memphis Center
08:30PM 36.2825 -87.9214 266° West 438 504 36,000  Level Memphis Center
08:31PM 36.2753 -88.0761 267° West 444 511 36,000  Level Memphis Center
08:32PM 36.2736 -88.2178 269° West 439 505 36,000  Level Memphis Center
08:33PM 36.2656 -88.3697 266° West 439 505 36,000  Level Memphis Center
08:34PM 36.2575 -88.5194 266° West 439 505 36,000  Level Memphis Center
08:35PM 36.2514 -88.6686 267° West 444 511 36,000  Level Memphis Center
08:36PM 36.2428 -88.8078 266° West 433 498 36,000  Level Memphis Center
08:37PM 36.2342 -88.9572 266° West 428 493 36,000  Level Memphis Center
08:38PM 36.2231 -89.1014 265° West 423 487 36,000  Level Memphis Center
08:39PM 36.2203 -89.2481 269° West 428 493 36,000  Level Memphis Center
08:40PM 36.2236 -89.4050 272° West 434 499 36,000 -60 Level Memphis Center
08:41PM 36.2289 -89.5567 273° West 440 506 35,900 -420 Descending Memphis Center
08:42PM 36.2339 -89.6881 273° West 440 506 35,200 -660 Descending Memphis Center
08:43PM 36.2367 -89.8347 271° West 435 501 34,600 -840 Descending Memphis Center
08:44PM 36.2394 -89.9839 271° West 435 501 33,600 -1,020 Descending Memphis Center
08:45PM 36.2417 -90.1281 271° West 435 501 32,600 -840 Descending Memphis Center
08:46PM 36.2442 -90.2772 271° West 435 501 32,000 -300 Descending Memphis Center
08:47PM 36.2461 -90.4317 271° West 440 506 32,000  Level Memphis Center
08:48PM 36.2503 -90.5808 272° West 440 506 32,000  Level Memphis Center
08:49PM 36.2497 -90.7353 270° West 440 506 32,000  Level Memphis Center
08:50PM 36.2533 -90.8872 272° West 440 506 32,000  Level Memphis Center
08:51PM 36.2506 -91.0364 269° West 440 506 32,000  Level Memphis Center
08:52PM 36.2517 -91.1908 271° West 440 506 32,000  Level Memphis Center
08:53PM 36.2547 -91.3453 271° West 440 506 32,000  Level Memphis Center
08:54PM 36.2578 -91.5022 271° West 440 506 32,000  Level Memphis Center
08:55PM 36.2561 -91.6542 269° West 445 512 32,000  Level Memphis Center
08:56PM 36.2606 -91.8214 272° West 445 512 32,000  Level Memphis Center
08:57PM 36.2608 -91.9786 270° West 445 512 32,000  Level Memphis Center
08:58PM 36.2628 -92.1331 271° West 451 519 32,000  Level Memphis Center
08:59PM 36.2583 -92.2925 268° West 464 534 32,000  Level Memphis Center
09:00PM 36.2581 -92.4469 270° West 464 534 32,000  Level Memphis Center
09:01PM 36.2594 -92.6039 271° West 458 527 32,000  Level Memphis Center
09:02PM 36.2586 -92.7608 270° West 458 527 32,000  Level Memphis Center
09:03PM 36.2556 -92.9153 269° West 453 521 32,000  Level Memphis Center
09:04PM 36.2564 -93.0697 270° West 453 521 32,000  Level Memphis Center
09:05PM 36.2528 -93.2267 268° West 458 527 32,000  Level Memphis Center
09:06PM 36.2514 -93.3783 269° West 458 527 32,000  Level Memphis Center
09:07PM 36.2475 -93.5378 268° West 458 527 32,000  Level Memphis Center
09:08PM 36.2475 -93.6922 270° West 458 527 32,000  Level Memphis Center
09:09PM 36.2481 -93.8286 270° West 452 520 32,000 -960 Level Memphis Center
09:10PM 36.2456 -93.9856 269° West 452 520 30,100 -1,980 Descending Memphis Center
09:11PM 36.2411 -94.1369 268° West 452 520 28,100 -2,340 Descending Memphis Center
09:12PM 36.2383 -94.2964 269° West 458 527 25,500 -2,400 Descending Memphis Center
09:13PM 36.2375 -94.4483 270° West 458 527 23,400 -2,100 Descending Memphis Center
09:14PM 36.2344 -94.6025 269° West 458 527 21,400 -2,220 Descending Memphis Center
09:16PM 36.2167 -94.8028 270° West  Level FlightAware Approximate
09:17PM 36.2403 -95.0725 270° West 381 438 14,100  Level Kansas City Center
09:18PM 36.2517 -95.1953 277° West 354 407 12,300 -1,800 Descending Kansas City Center
09:19PM 36.2592 -95.3031 275° West 311 358 10,500 -1,740 Descending Kansas City Center
09:20PM 36.2686 -95.4056 277° West 292 336 8,800 -1,740 Descending Kansas City Center
09:21PM 36.2772 -95.5028 276° West 279 321 7,000 -1,800 Descending Kansas City Center
09:22PM 36.2858 -95.6003 276° West 267 307 5,200 -1,740 Descending Kansas City Center
09:23PM 36.2000 -95.7821 270° West  Level FlightAware Approximate
09:23PM 36.2914 -95.6900 274° West 257 296 3,500  Level Kansas City Center
09:24PM 36.2919 -95.7678 271° West 251 289 2,400 -720 Descending Kansas City Center
09:25PM 36.2708 -95.8406 250° West 208 239 2,200 -660 Descending Kansas City Center
09:26PM 36.2450 -95.8803 231° Southwest 139 160 1,100 -1,140 Descending Kansas City Center